This is the latest recevied weather packets stored in our database for station/object K4AXV-13. If no packets are shown the sender has not sent any weather packets the latest 10 day(s).
| Time | Temp. | Humidity | Pressure | Rain* | Wind** | Luminosity | Snow |
|---|---|---|---|---|---|---|---|
| 1778026168 | 21.11° C | - | - | 0 mm | 0 m/s | - | - |
| 1778025866 | 21.11° C | - | - | 0 mm | 0 m/s | - | - |
| 1778025568 | 21.11° C | - | - | 0 mm | 1.34 m/s, 187° | - | - |
| 1778025358 | 21.67° C | - | - | 0 mm | 0 m/s | - | - |
| 1778025266 | 21.67° C | - | - | 0 mm | 0 m/s | - | - |
| 1778024967 | 21.11° C | - | - | 0 mm | 0.89 m/s, 343° | - | - |
| 1778024665 | 21.67° C | - | - | 0 mm | 0 m/s | - | - |
| 1778024488 | 21.67° C | - | - | 0 mm | 0.89 m/s, 122° | - | - |
| 1778024366 | 21.67° C | - | - | 0 mm | 0.89 m/s, 122° | - | - |
| 1778024064 | 21.67° C | - | - | 0 mm | 1.34 m/s, 314° | - | - |
| 1778023464 | 21.67° C | - | - | 0 mm | 0.45 m/s, 283° | - | - |
| 1778021061 | 22.78° C | - | - | 0 mm | 0.45 m/s, 11° | - | - |
| 1778020461 | 22.78° C | - | - | 0 mm | 0.45 m/s, 89° | - | - |
| 1778019561 | 22.78° C | - | - | 0 mm | 1.34 m/s, 226° | - | - |
| 1778018659 | 23.33° C | - | - | 0 mm | 0.45 m/s, 309° | - | - |
| 1778017158 | 23.33° C | - | - | 0 mm | 1.34 m/s, 167° | - | - |
| 1778016255 | 24.44° C | - | - | 0 mm | 1.34 m/s, 143° | - | - |
| 1778012954 | 24.44° C | - | - | 0 mm | 3.13 m/s, 118° | - | - |
| 1778012353 | 25° C | - | - | 0 mm | 1.34 m/s, 301° | - | - |
| 1778012051 | 25.56° C | - | - | 0 mm | 1.79 m/s, 98° | - | - |
| 1777996136 | 25° C | - | - | 0 mm | 0.45 m/s, 330° | - | - |
| 1777995834 | 25° C | - | - | 0 mm | 2.24 m/s, 89° | - | - |
| 1777994935 | 25° C | - | - | 0 mm | 0.45 m/s, 0° | - | - |
| 1777994633 | 23.89° C | - | - | 0 mm | 0.45 m/s, 276° | - | - |
| 1777993133 | 22.78° C | - | - | 0 mm | 0 m/s | - | - |
* Rain latest hour (hover to see other rain measurements)
** Current wind speed in m/s (hover to see current wind gust speed)